Island Queen — WDE6981 — position and weather

sailwx.info

Track history (hours):
 
Tides and Currents Weather Stations Pressure Air Temp Water Temp Dewpoint Dewpoint Depression Visibility Wind Speed Wind Dir Waves Ship Positions

Island Queen

Owner: Island Queen Sightseeing Tours Inc., Miami, FL. More information available from US FCC via Universal Licensing System and Coast Guard Vessel Documentation Center.

Last reported at 2018-Feb-25 03:27 UTC. Time now 2018-Feb-25 03:54 UTC.
Position N 25°47' W 080°11'.

Type: Passenger vessel. MMSI: 367387350.

Date/timePositionNaut miles runAvg speedWind from/ knotsBaromVisibWave heightAir tempDewpointWater temp
2018-Feb-25 03:27N 25°47' W 080°11'0 0.0
2018-Feb-25 03:00N 25°47' W 080°11'0 0.0
2018-Feb-25 02:30N 25°47' W 080°11'0 0.0
2018-Feb-25 02:00N 25°47' W 080°11'0 0.0
2018-Feb-25 01:24N 25°47' W 080°11'0 0.0
2018-Feb-25 01:00N 25°47' W 080°11'0 0.0
2018-Feb-25 00:29N 25°47' W 080°11'2 3.7
2018-Feb-25 00:00N 25°46' W 080°09'1 1.8
2018-Feb-24 23:29N 25°47' W 080°10'1 2.9
2018-Feb-24 22:59N 25°47' W 080°11'0 0.0
2018-Feb-24 22:29N 25°47' W 080°11'1 2.9
2018-Feb-24 22:00N 25°46' W 080°10'1 1.7
2018-Feb-24 21:30N 25°47' W 080°09'2 3.4
2018-Feb-24 20:59N 25°47' W 080°11'0 0.0
2018-Feb-24 20:29N 25°47' W 080°11'2 5.1
2018-Feb-24 20:00N 25°46' W 080°09'1 2.1
2018-Feb-24 19:30N 25°47' W 080°09'2 3.1
2018-Feb-24 18:59N 25°47' W 080°11'0 0.0
2018-Feb-24 18:29N 25°47' W 080°11'2 5.2
2018-Feb-24 18:00N 25°46' W 080°08'1 2.5
2018-Feb-24 17:30N 25°47' W 080°10'1 2.7
2018-Feb-24 16:58N 25°47' W 080°11'2 5.2
2018-Feb-24 16:30N 25°44' W 080°11'4 8.5
2018-Feb-24 16:00N 25°40' W 080°10'2 4.5
2018-Feb-24 15:30N 25°40' W 080°12'5 8.8
2018-Feb-24 14:59N 25°44' W 080°11'3 4.7
2018-Feb-24 14:26N 25°47' W 080°11'0 0.0
2018-Feb-24 13:59N 25°47' W 080°11'0 0.0
2018-Feb-24 13:29N 25°47' W 080°11'0 0.0
2018-Feb-24 12:59N 25°47' W 080°11'0 0.0
2018-Feb-24 12:26N 25°47' W 080°11'0 0.0
2018-Feb-24 11:59N 25°47' W 080°11'0 0.0
2018-Feb-24 11:29N 25°47' W 080°11'0 0.0
2018-Feb-24 10:59N 25°47' W 080°11'0 0.0
2018-Feb-24 10:29N 25°47' W 080°11'0 0.0
2018-Feb-24 09:53N 25°47' W 080°11'0 0.0
2018-Feb-24 09:28N 25°47' W 080°11'0 0.0
2018-Feb-24 08:58N 25°47' W 080°11'0 0.0
2018-Feb-24 08:28N 25°47' W 080°11'0 0.0
2018-Feb-24 07:58N 25°47' W 080°11'0 0.0
2018-Feb-24 07:25N 25°47' W 080°11'0 0.0
2018-Feb-24 06:58N 25°47' W 080°11'0 0.0
2018-Feb-24 06:25N 25°47' W 080°11'0 0.0
2018-Feb-24 05:55N 25°47' W 080°11'0 0.0
2018-Feb-24 05:27N 25°47' W 080°11'0 0.0
2018-Feb-24 04:58N 25°47' W 080°11'0 0.0
2018-Feb-24 04:28N 25°47' W 080°11'0 0.0
2018-Feb-24 03:58N 25°47' W 080°11'0 0.0
2018-Feb-24 03:28N 25°47' W 080°11'0 0.0
2018-Feb-24 02:58N 25°47' W 080°11'0 0.0
2018-Feb-24 02:28N 25°47' W 080°11'0 0.0
2018-Feb-24 01:58N 25°47' W 080°11'0 0.0
2018-Feb-24 01:22N 25°47' W 080°11'0 0.0
2018-Feb-24 00:58N 25°47' W 080°11'0 0.0
2018-Feb-24 00:28N 25°47' W 080°11'0 0.0
2018-Feb-23 23:55N 25°47' W 080°11'0 0.4
2018-Feb-23 23:27N 25°47' W 080°11'1 2.9
2018-Feb-23 22:59N 25°47' W 080°09'1 2.3
2018-Feb-23 22:30N 25°46' W 080°09'2 4.4
2018-Feb-23 21:58N 25°47' W 080°11'0 0.0
2018-Feb-23 21:28N 25°47' W 080°11'2 4.1
2018-Feb-23 21:00N 25°46' W 080°09'1 1.9
2018-Feb-23 20:30N 25°47' W 080°10'1 1.9
2018-Feb-23 19:43N 25°47' W 080°11'0 0.0
2018-Feb-23 19:30N 25°47' W 080°11'2 3.3
2018-Feb-23 19:00N 25°47' W 080°09'1 1.6
2018-Feb-23 18:30N 25°46' W 080°09'2 3.8
2018-Feb-23 18:00N 25°47' W 080°11'0 0.0
2018-Feb-23 17:30N 25°47' W 080°11'2 3.5
2018-Feb-23 17:00N 25°46' W 080°09'1 1.9
2018-Feb-23 16:30N 25°47' W 080°10'1 2.7
2018-Feb-23 15:58N 25°47' W 080°11'0 0.1
2018-Feb-23 15:30N 25°47' W 080°11'0 0.1
2018-Feb-23 14:59N 25°47' W 080°11'0 0.0
2018-Feb-23 14:29N 25°47' W 080°11'0 0.0
2018-Feb-23 13:59N 25°47' W 080°11'0 0.0
2018-Feb-23 13:30N 25°47' W 080°11'0 0.0
2018-Feb-23 13:00N 25°47' W 080°11'0 0.0
2018-Feb-23 12:25N 25°47' W 080°11'0 0.0
2018-Feb-23 11:43N 25°47' W 080°11'0 0.0
2018-Feb-23 11:25N 25°47' W 080°11'0 0.0
2018-Feb-23 10:55N 25°47' W 080°11'0 0.0
2018-Feb-23 10:28N 25°47' W 080°11'0 0.0
2018-Feb-23 09:58N 25°47' W 080°11'0 0.0
2018-Feb-23 09:28N 25°47' W 080°11'0 0.0
2018-Feb-23 08:58N 25°47' W 080°11'0 0.0
2018-Feb-23 08:13N 25°47' W 080°11'0 0.0
2018-Feb-23 07:58N 25°47' W 080°11'0 0.0
2018-Feb-23 07:28N 25°47' W 080°11'0 0.0
2018-Feb-23 06:58N 25°47' W 080°11'0 0.0
2018-Feb-23 06:25N 25°47' W 080°11'0 0.0
2018-Feb-23 05:58N 25°47' W 080°11'0 0.0
2018-Feb-23 05:28N 25°47' W 080°11'0 0.0
2018-Feb-23 04:46N 25°47' W 080°11'0 0.0
2018-Feb-23 04:22N 25°47' W 080°11'0 0.0
2018-Feb-23 03:58N 25°47' W 080°11'0 0.0
2018-Feb-23 03:28N 25°47' W 080°11'0 0.0
2018-Feb-23 02:58N 25°47' W 080°11'0 0.0
2018-Feb-23 02:28N 25°47' W 080°11'0 0.0
2018-Feb-23 01:55N 25°47' W 080°11'0 0.0
2018-Feb-23 01:25N 25°47' W 080°11'0 0.0
2018-Feb-23 00:58N 25°47' W 080°11'0 0.0
2018-Feb-23 00:30N 25°47' W 080°11'2 3.7
2018-Feb-23 00:00N 25°46' W 080°09'1 1.3
2018-Feb-22 23:30N 25°47' W 080°09'2 3.2
2018-Feb-22 22:58N 25°47' W 080°11'0 0.0
2018-Feb-22 22:30N 25°47' W 080°11'2 4.4
2018-Feb-22 21:57N 25°46' W 080°09'1 2.5
2018-Feb-22 21:30N 25°47' W 080°10'1 2.7
2018-Feb-22 20:58N 25°47' W 080°11'0 0.0
2018-Feb-22 20:28N 25°47' W 080°11'2 4.0
2018-Feb-22 20:00N 25°46' W 080°09'1 1.9
2018-Feb-22 19:29N 25°47' W 080°10'1 3.0
2018-Feb-22 19:00N 25°47' W 080°11'0 0.0
2018-Feb-22 18:27N 25°47' W 080°11'2 4.8
2018-Feb-22 18:00N 25°46' W 080°09'1 2.0
2018-Feb-22 17:30N 25°47' W 080°09'2 2.2
2018-Feb-22 16:49N 25°47' W 080°11'0 0.5
2018-Feb-22 16:30N 25°47' W 080°11'2 3.7
2018-Feb-22 16:00N 25°47' W 080°09'1 2.2
2018-Feb-22 15:30N 25°47' W 080°10'1 2.4
2018-Feb-22 14:58N 25°47' W 080°11'0 0.0
2018-Feb-22 14:22N 25°47' W 080°11'0 0.0
2018-Feb-22 13:58N 25°47' W 080°11'0 0.0
2018-Feb-22 13:28N 25°47' W 080°11'0 0.0
2018-Feb-22 12:58N 25°47' W 080°11'0 0.0
2018-Feb-22 12:28N 25°47' W 080°11'0 0.0
2018-Feb-22 11:52N 25°47' W 080°11'0 0.0
2018-Feb-22 11:28N 25°47' W 080°11'0 0.0
2018-Feb-22 10:58N 25°47' W 080°11'0 0.0
2018-Feb-22 10:28N 25°47' W 080°11'0 0.0
2018-Feb-22 09:58N 25°47' W 080°11'0 0.0
2018-Feb-22 09:28N 25°47' W 080°11'0 0.0
2018-Feb-22 08:58N 25°47' W 080°11'0 0.0
2018-Feb-22 08:28N 25°47' W 080°11'0 0.0
2018-Feb-22 07:58N 25°47' W 080°11'0 0.0
2018-Feb-22 07:22N 25°47' W 080°11'0 0.0
2018-Feb-22 06:58N 25°47' W 080°11'0 0.0
2018-Feb-22 06:28N 25°47' W 080°11'0 0.0
2018-Feb-22 05:58N 25°47' W 080°11'0 0.0
2018-Feb-22 05:28N 25°47' W 080°11'0 0.0
2018-Feb-22 04:58N 25°47' W 080°11'0 0.0
2018-Feb-22 04:28N 25°47' W 080°11'0 0.0
2018-Feb-22 03:52N 25°47' W 080°11'0 0.0
2018-Feb-22 03:28N 25°47' W 080°11'0 0.0
2018-Feb-22 02:58N 25°47' W 080°11'0 0.0
2018-Feb-22 02:28N 25°47' W 080°11'0 0.0
2018-Feb-22 01:58N 25°47' W 080°11'0 0.0
2018-Feb-22 01:28N 25°47' W 080°11'0 0.0
2018-Feb-22 00:58N 25°47' W 080°11'0 0.0
2018-Feb-22 00:25N 25°47' W 080°11'0 0.0
2018-Feb-21 23:58N 25°47' W 080°11'0 0.0
2018-Feb-21 23:28N 25°47' W 080°11'0 0.0
2018-Feb-21 22:58N 25°47' W 080°11'1 2.9
2018-Feb-21 22:30N 25°46' W 080°10'1 1.8
2018-Feb-21 22:00N 25°47' W 080°09'2 2.6
2018-Feb-21 21:21N 25°47' W 080°11'0 0.0
2018-Feb-21 20:59N 25°47' W 080°11'2 4.9
2018-Feb-21 20:30N 25°46' W 080°09'1 2.7
2018-Feb-21 20:00N 25°47' W 080°09'2 3.0
2018-Feb-21 19:25N 25°47' W 080°11'0 0.0
2018-Feb-21 19:00N 25°47' W 080°11'2 4.5
2018-Feb-21 18:29N 25°46' W 080°09'1 2.5
2018-Feb-21 18:00N 25°47' W 080°09'2 3.0
2018-Feb-21 17:28N 25°47' W 080°11'0 0.0
2018-Feb-21 17:00N 25°47' W 080°11'2 4.5
2018-Feb-21 16:30N 25°46' W 080°09'1 2.1
2018-Feb-21 16:00N 25°47' W 080°09'2 2.9
2018-Feb-21 15:28N 25°47' W 080°11'0 0.0
2018-Feb-21 14:55N 25°47' W 080°11'0 0.0
2018-Feb-21 14:28N 25°47' W 080°11'0 0.0
2018-Feb-21 13:58N 25°47' W 080°11'0 0.0
2018-Feb-21 13:28N 25°47' W 080°11'0 0.0
2018-Feb-21 12:58N 25°47' W 080°11'0 0.0
2018-Feb-21 12:25N 25°47' W 080°11'0 0.0
2018-Feb-21 11:58N 25°47' W 080°11'0 0.0
2018-Feb-21 11:28N 25°47' W 080°11'0 0.0
2018-Feb-21 10:55N 25°47' W 080°11'0 0.0
2018-Feb-21 10:28N 25°47' W 080°11'0 0.0
2018-Feb-21 09:58N 25°47' W 080°11'0 0.0
2018-Feb-21 09:28N 25°47' W 080°11'0 0.0
2018-Feb-21 08:55N 25°47' W 080°11'0 0.0
2018-Feb-21 08:28N 25°47' W 080°11'0 0.0
2018-Feb-21 07:55N 25°47' W 080°11'0 0.0
2018-Feb-21 07:28N 25°47' W 080°11'0 0.0
2018-Feb-21 06:58N 25°47' W 080°11'0 0.0
2018-Feb-21 06:28N 25°47' W 080°11'0 0.0
2018-Feb-21 05:55N 25°47' W 080°11'0 0.0
2018-Feb-21 05:25N 25°47' W 080°11'0 0.0
2018-Feb-21 04:58N 25°47' W 080°11'0 0.0
2018-Feb-21 04:25N 25°47' W 080°11'0 0.0
2018-Feb-21 03:58N 25°47' W 080°11'0 0.0
2018-Feb-21 03:28N 25°47' W 080°11'0 0.0
2018-Feb-21 02:55N 25°47' W 080°11'0 0.0
2018-Feb-21 02:28N 25°47' W 080°11'0 0.0
2018-Feb-21 01:55N 25°47' W 080°11'0 0.0
2018-Feb-21 01:25N 25°47' W 080°11'0 0.0
2018-Feb-21 00:58N 25°47' W 080°11'0 0.0
2018-Feb-21 00:25N 25°47' W 080°11'0 0.0
2018-Feb-20 23:58N 25°47' W 080°11'0 0.0
2018-Feb-20 23:28N 25°47' W 080°11'0 0.0
2018-Feb-20 23:00N 25°47' W 080°11'2 4.7
2018-Feb-20 22:30N 25°46' W 080°09'1 1.9
2018-Feb-20 22:00N 25°47' W 080°09'2 3.3
2018-Feb-20 21:30N 25°47' W 080°11'0 0.0
2018-Feb-20 21:00N 25°47' W 080°11'2 4.9
2018-Feb-20 20:30N 25°46' W 080°09'1 2.1
2018-Feb-20 20:00N 25°47' W 080°09'2 3.4
2018-Feb-20 19:30N 25°47' W 080°11'0 0.0
2018-Feb-20 19:00N 25°47' W 080°11'1 2.8
2018-Feb-20 18:30N 25°47' W 080°10'1 2.3
2018-Feb-20 18:00N 25°46' W 080°09'2 3.2
2018-Feb-20 17:19N 25°47' W 080°11'0 0.3
2018-Feb-20 16:56N 25°47' W 080°11'2 5.3
2018-Feb-20 16:30N 25°46' W 080°09'1 2.6
2018-Feb-20 16:00N 25°47' W 080°10'1 2.6
2018-Feb-20 15:26N 25°47' W 080°11'0 0.0
2018-Feb-20 14:56N 25°47' W 080°11'0 0.0
2018-Feb-20 14:29N 25°47' W 080°11'0 0.0
2018-Feb-20 13:53N 25°47' W 080°11'0 0.0
2018-Feb-20 13:20N 25°47' W 080°11'0 0.0
2018-Feb-20 13:00N 25°47' W 080°11'0 0.3
2018-Feb-20 12:28N 25°47' W 080°11'0 0.2
2018-Feb-20 11:50N 25°47' W 080°11'0 0.0
2018-Feb-20 11:29N 25°47' W 080°11'0 0.0
2018-Feb-20 10:59N 25°47' W 080°11'0 0.0
2018-Feb-20 10:17N 25°47' W 080°11'0 0.0
2018-Feb-20 09:59N 25°47' W 080°11'0 0.0
2018-Feb-20 09:26N 25°47' W 080°11'0 0.0
2018-Feb-20 08:59N 25°47' W 080°11'0 0.0
2018-Feb-20 08:29N 25°47' W 080°11'0 0.0
2018-Feb-20 07:59N 25°47' W 080°11'0 0.0
2018-Feb-20 07:29N 25°47' W 080°11'0 0.0
2018-Feb-20 06:56N 25°47' W 080°11'0 0.0
2018-Feb-20 06:29N 25°47' W 080°11'0 0.0
2018-Feb-20 05:56N 25°47' W 080°11'0 0.0
2018-Feb-20 05:29N 25°47' W 080°11'0 0.0
2018-Feb-20 04:59N 25°47' W 080°11'0 0.0
2018-Feb-20 04:26N 25°47' W 080°11'0 0.0
2018-Feb-20 03:59N 25°47' W 080°11'0 0.0
2018-Feb-20 03:29N 25°47' W 080°11'0 0.0
2018-Feb-20 02:59N 25°47' W 080°11'0 0.0
2018-Feb-20 02:29N 25°47' W 080°11'0 0.0
2018-Feb-20 01:59N 25°47' W 080°11'0 0.0
2018-Feb-20 01:25N 25°47' W 080°11'0 0.0
2018-Feb-20 00:58N 25°47' W 080°11'0 0.0
2018-Feb-20 00:25N 25°47' W 080°11'0 0.7
2018-Feb-20 00:00N 25°47' W 080°11'2 4.6
2018-Feb-19 23:29N 25°45' W 080°10'1 2.1
2018-Feb-19 23:00N 25°45' W 080°11'2 3.1
2018-Feb-19 22:30N 25°47' W 080°11'2 4.5
2018-Feb-19 22:00N 25°45' W 080°10'1 1.1
2018-Feb-19 21:30N 25°45' W 080°11'2 4.0
2018-Feb-19 21:00N 25°47' W 080°11'2 4.8
2018-Feb-19 20:30N 25°45' W 080°10'0 0.3
2018-Feb-19 20:00N 25°45' W 080°10'2 4.4
2018-Feb-19 19:29N 25°47' W 080°11'0 0.7
2018-Feb-19 19:00N 25°47' W 080°11'2 4.3
2018-Feb-19 18:30N 25°45' W 080°10'2 4.4
2018-Feb-19 17:57N 25°47' W 080°11'0 0.8
2018-Feb-19 17:29N 25°47' W 080°11'2 4.5
2018-Feb-19 16:58N 25°45' W 080°10'2 5.0
2018-Feb-19 16:30N 25°47' W 080°11'0 0.5
2018-Feb-19 16:00N 25°47' W 080°11'2 3.7
2018-Feb-19 15:29N 25°45' W 080°11'0 0.3
2018-Feb-19 14:59N 25°45' W 080°11'2 3.5
2018-Feb-19 14:29N 25°47' W 080°11'0 0.5
2018-Feb-19 14:00N 25°47' W 080°11'0 0.4
2018-Feb-19 13:30N 25°47' W 080°11'0 0.4
2018-Feb-19 13:00N 25°47' W 080°11'0 0.0
2018-Feb-19 12:27N 25°47' W 080°11'0 0.0
2018-Feb-19 12:00N 25°47' W 080°11'0 0.0
2018-Feb-19 11:30N 25°47' W 080°11'0 0.0
2018-Feb-19 10:57N 25°47' W 080°11'0 0.0
2018-Feb-19 10:30N 25°47' W 080°11'0 0.0
2018-Feb-19 10:00N 25°47' W 080°11'0 0.0
2018-Feb-19 09:30N 25°47' W 080°11'0 0.0
2018-Feb-19 08:54N 25°47' W 080°11'0 0.0
2018-Feb-19 08:21N 25°47' W 080°11'0 0.0
2018-Feb-19 08:00N 25°47' W 080°11'0 0.0
2018-Feb-19 07:30N 25°47' W 080°11'0 0.0
2018-Feb-19 07:00N 25°47' W 080°11'0 0.0
2018-Feb-19 06:30N 25°47' W 080°11'0 0.0
2018-Feb-19 06:00N 25°47' W 080°11'0 0.0
2018-Feb-19 05:30N 25°47' W 080°11'0 0.0
2018-Feb-19 05:00N 25°47' W 080°11'0 0.0
2018-Feb-19 04:30N 25°47' W 080°11'0 0.0
2018-Feb-19 03:54N 25°47' W 080°11'0 0.0
2018-Feb-19 03:30N 25°47' W 080°11'0 0.0
2018-Feb-19 03:00N 25°47' W 080°11'0 0.0
2018-Feb-19 02:27N 25°47' W 080°11'0 0.0
2018-Feb-19 02:00N 25°47' W 080°11'0 0.0
2018-Feb-19 01:30N 25°47' W 080°11'0 0.0
2018-Feb-19 00:58N 25°47' W 080°11'0 0.0
2018-Feb-19 00:27N 25°47' W 080°11'0 0.5
2018-Feb-19 00:00N 25°47' W 080°11'0 0.3
2018-Feb-18 23:30N 25°47' W 080°11'2 4.1
2018-Feb-18 22:56N 25°45' W 080°10'1 1.7
2018-Feb-18 22:30N 25°45' W 080°11'2 4.0
2018-Feb-18 22:00N 25°47' W 080°11'2 4.6
2018-Feb-18 21:29N 25°45' W 080°10'2 3.3
2018-Feb-18 21:00N 25°46' W 080°11'0 0.1
2018-Feb-18 20:30N 25°46' W 080°11'2 2.9
2018-Feb-18 19:58N 25°45' W 080°10'2 4.3
2018-Feb-18 19:30N 25°47' W 080°11'0 0.7
2018-Feb-18 19:00N 25°47' W 080°11'0 0.1
2018-Feb-18 18:28N 25°47' W 080°11'2 4.4
2018-Feb-18 18:01N 25°45' W 080°11'1 1.6
2018-Feb-18 17:30N 25°46' W 080°11'1 1.3
2018-Feb-18 17:00N 25°46' W 080°11'1 2.8
2018-Feb-18 16:30N 25°45' W 080°11'2 3.9
2018-Feb-18 15:57N 25°47' W 080°11'2 4.9
2018-Feb-18 15:30N 25°45' W 080°10'2 3.3
2018-Feb-18 15:00N 25°46' W 080°11'1 1.2
2018-Feb-18 14:28N 25°47' W 080°11'0 0.1
2018-Feb-18 13:58N 25°47' W 080°11'0 0.6
2018-Feb-18 13:24N 25°47' W 080°11'0 0.0
2018-Feb-18 12:59N 25°47' W 080°11'0 0.0
2018-Feb-18 12:29N 25°47' W 080°11'0 0.0
2018-Feb-18 11:53N 25°47' W 080°11'0 0.0
2018-Feb-18 11:29N 25°47' W 080°11'0 0.0
2018-Feb-18 10:56N 25°47' W 080°11'0 0.0
2018-Feb-18 10:29N 25°47' W 080°11'0 0.0
2018-Feb-18 09:59N 25°47' W 080°11'0 0.0
2018-Feb-18 09:30N 25°47' W 080°11'0 0.0
2018-Feb-18 08:59N 25°47' W 080°11'0 0.0
2018-Feb-18 08:29N 25°47' W 080°11'0 0.0
2018-Feb-18 07:59N 25°47' W 080°11'0 0.0
2018-Feb-18 07:29N 25°47' W 080°11'0 0.0
2018-Feb-18 07:00N 25°47' W 080°11'0 0.0
2018-Feb-18 06:29N 25°47' W 080°11'0 0.0
2018-Feb-18 05:59N 25°47' W 080°11'0 0.0
2018-Feb-18 05:29N 25°47' W 080°11'0 0.0
2018-Feb-18 04:53N 25°47' W 080°11'0 0.0
2018-Feb-18 04:29N 25°47' W 080°11'0 0.0
2018-Feb-18 03:50N 25°47' W 080°11'0 0.0
2018-Feb-18 03:23N 25°47' W 080°11'0 0.0
2018-Feb-18 02:53N 25°47' W 080°11'0 0.0
2018-Feb-18 02:23N 25°47' W 080°11'0 0.0
2018-Feb-18 01:59N 25°47' W 080°11'0 0.0
2018-Feb-18 01:30N 25°47' W 080°11'0 0.5
2018-Feb-18 01:00N 25°47' W 080°11'2 3.7
2018-Feb-18 00:30N 25°45' W 080°11'1 1.0
2018-Feb-18 00:00N 25°46' W 080°11'1 2.7
2018-Feb-17 23:30N 25°47' W 080°11'2 4.8
2018-Feb-17 23:00N 25°45' W 080°10'1 2.8
2018-Feb-17 22:30N 25°46' W 080°11'0 0.3
2018-Feb-17 22:00N 25°46' W 080°11'2 3.0
2018-Feb-17 21:29N 25°45' W 080°10'2 4.5
2018-Feb-17 21:00N 25°47' W 080°11'1 2.2
2018-Feb-17 20:30N 25°46' W 080°11'1 2.2
2018-Feb-17 20:00N 25°45' W 080°10'2 4.2
2018-Feb-17 19:30N 25°47' W 080°11'0 0.4
2018-Feb-17 18:59N 25°47' W 080°11'0 0.1
2018-Feb-17 18:30N 25°47' W 080°11'2 4.7
2018-Feb-17 17:59N 25°45' W 080°10'1 2.6
2018-Feb-17 17:30N 25°46' W 080°11'1 2.4
2018-Feb-17 16:59N 25°47' W 080°11'2 4.2
2018-Feb-17 16:29N 25°45' W 080°11'0 0.5
2018-Feb-17 15:59N 25°45' W 080°10'2 4.6
2018-Feb-17 15:30N 25°47' W 080°11'2 4.3
2018-Feb-17 15:00N 25°45' W 080°11'1 1.9
2018-Feb-17 14:30N 25°46' W 080°11'1 2.3
2018-Feb-17 13:59N 25°47' W 080°11'0 0.6
2018-Feb-17 13:30N 25°47' W 080°11'0 0.0
2018-Feb-17 12:57N 25°47' W 080°11'0 0.0
2018-Feb-17 12:30N 25°47' W 080°11'0 0.0
2018-Feb-17 12:00N 25°47' W 080°11'0 0.0
2018-Feb-17 11:24N 25°47' W 080°11'0 0.0
2018-Feb-17 11:00N 25°47' W 080°11'0 0.0
2018-Feb-17 10:30N 25°47' W 080°11'0 0.0
2018-Feb-17 10:01N 25°47' W 080°11'0 0.0
2018-Feb-17 09:30N 25°47' W 080°11'0 0.0
2018-Feb-17 09:00N 25°47' W 080°11'0 0.0
2018-Feb-17 08:24N 25°47' W 080°11'0 0.0
2018-Feb-17 08:00N 25°47' W 080°11'0 0.0
2018-Feb-17 07:30N 25°47' W 080°11'0 0.0
2018-Feb-17 07:00N 25°47' W 080°11'0 0.0
2018-Feb-17 06:24N 25°47' W 080°11'0 0.0
2018-Feb-17 06:00N 25°47' W 080°11'0 0.0
2018-Feb-17 05:30N 25°47' W 080°11'0 0.0
2018-Feb-17 05:00N 25°47' W 080°11'0 0.0
2018-Feb-17 04:30N 25°47' W 080°11'0 0.0
2018-Feb-17 03:57N 25°47' W 080°11'0 0.0
2018-Feb-17 03:30N 25°47' W 080°11'0 0.0
2018-Feb-17 03:00N 25°47' W 080°11'0 0.0
2018-Feb-17 02:18N 25°47' W 080°11'0 0.0
2018-Feb-17 02:00N 25°47' W 080°11'0 0.0
2018-Feb-17 01:30N 25°47' W 080°11'0 0.0
2018-Feb-17 01:00N 25°47' W 080°11'0 0.5
2018-Feb-17 00:27N 25°47' W 080°11'2 4.4
2018-Feb-16 23:58N 25°45' W 080°11'1 1.5
2018-Feb-16 23:29N 25°46' W 080°11'1 2.9
2018-Feb-16 23:00N 25°47' W 080°11'2 4.4
2018-Feb-16 22:30N 25°45' W 080°10'1 2.7
2018-Feb-16 22:00N 25°46' W 080°11'1 1.4
2018-Feb-16 21:30N 25°47' W 080°11'2 3.7
2018-Feb-16 20:59N 25°45' W 080°10'2 3.5
2018-Feb-16 20:30N 25°46' W 080°11'1 1.2
2018-Feb-16 20:00N 25°46' W 080°11'1 2.3
2018-Feb-16 19:28N 25°45' W 080°10'2 4.5
2018-Feb-16 19:00N 25°47' W 080°11'0 0.5
2018-Feb-16 18:26N 25°47' W 080°11'2 4.0
2018-Feb-16 18:00N 25°45' W 080°11'0 0.1
2018-Feb-16 17:30N 25°45' W 080°11'2 3.5
2018-Feb-16 17:00N 25°47' W 080°11'2 5.0
2018-Feb-16 16:30N 25°45' W 080°10'2 4.1
2018-Feb-16 16:00N 25°47' W 080°11'1 2.6
2018-Feb-16 15:30N 25°45' W 080°11'0 0.7
2018-Feb-16 14:58N 25°45' W 080°11'2 4.2
2018-Feb-16 14:29N 25°47' W 080°11'0 0.6
2018-Feb-16 13:59N 25°47' W 080°11'0 0.7
2018-Feb-16 13:28N 25°47' W 080°11'0 0.0
2018-Feb-16 12:58N 25°47' W 080°11'0 0.0
2018-Feb-16 12:25N 25°47' W 080°11'0 0.0
2018-Feb-16 11:52N 25°47' W 080°11'0 0.0
2018-Feb-16 11:25N 25°47' W 080°11'0 0.0
2018-Feb-16 10:55N 25°47' W 080°11'0 0.0
2018-Feb-16 10:28N 25°47' W 080°11'0 0.0
2018-Feb-16 09:58N 25°47' W 080°11'0 0.0
2018-Feb-16 09:25N 25°47' W 080°11'0 0.0
2018-Feb-16 08:58N 25°47' W 080°11'0 0.0
2018-Feb-16 08:28N 25°47' W 080°11'0 0.0
2018-Feb-16 07:58N 25°47' W 080°11'0 0.0
2018-Feb-16 07:28N 25°47' W 080°11'0 0.0
2018-Feb-16 06:58N 25°47' W 080°11'0 0.0
2018-Feb-16 06:28N 25°47' W 080°11'0 0.0
2018-Feb-16 05:52N 25°47' W 080°11'0 0.0
2018-Feb-16 05:28N 25°47' W 080°11'0 0.0
2018-Feb-16 04:52N 25°47' W 080°11'0 0.0
2018-Feb-16 04:28N 25°47' W 080°11'0 0.0
2018-Feb-16 03:58N 25°47' W 080°11'0 0.0
2018-Feb-16 03:28N 25°47' W 080°11'0 0.0
2018-Feb-16 02:58N 25°47' W 080°11'0 0.0
2018-Feb-16 02:25N 25°47' W 080°11'0 0.0
2018-Feb-16 01:58N 25°47' W 080°11'0 0.0
2018-Feb-16 01:28N 25°47' W 080°11'0 0.0
2018-Feb-16 00:58N 25°47' W 080°11'0 0.0
2018-Feb-16 00:28N 25°47' W 080°11'0 0.5
2018-Feb-15 23:58N 25°47' W 080°11'2 4.3
2018-Feb-15 23:30N 25°45' W 080°11'1 1.5
2018-Feb-15 22:59N 25°45' W 080°10'2 4.3
2018-Feb-15 22:27N 25°47' W 080°11'1 3.2
2018-Feb-15 22:00N 25°46' W 080°11'1 2.2
2018-Feb-15 21:30N 25°45' W 080°10'1 2.8
2018-Feb-15 21:00N 25°46' W 080°11'1 1.3
2018-Feb-15 20:30N 25°47' W 080°11'2 3.8
2018-Feb-15 19:59N 25°45' W 080°10'1 2.4
2018-Feb-15 19:30N 25°46' W 080°11'1 2.3
2018-Feb-15 19:00N 25°47' W 080°11'2 3.8
2018-Feb-15 18:30N 25°45' W 080°11'0 0.8
2018-Feb-15 18:00N 25°45' W 080°10'2 4.6
2018-Feb-15 17:30N 25°47' W 080°11'1 2.2
2018-Feb-15 17:00N 25°46' W 080°11'1 2.3
2018-Feb-15 16:30N 25°45' W 080°10'2 4.5
2018-Feb-15 16:00N 25°47' W 080°11'2 3.9
2018-Feb-15 15:30N 25°45' W 080°11'0 0.3
2018-Feb-15 15:00N 25°45' W 080°11'2 4.0
2018-Feb-15 14:29N 25°47' W 080°11'0 0.4
2018-Feb-15 13:58N 25°47' W 080°11'0 0.6
2018-Feb-15 13:29N 25°47' W 080°11'0 0.0
2018-Feb-15 12:59N 25°47' W 080°11'0 0.0
2018-Feb-15 12:26N 25°47' W 080°11'0 0.0
2018-Feb-15 11:59N 25°47' W 080°11'0 0.0
2018-Feb-15 11:29N 25°47' W 080°11'0 0.0
2018-Feb-15 10:59N 25°47' W 080°11'0 0.0
2018-Feb-15 10:29N 25°47' W 080°11'0 0.0
2018-Feb-15 09:59N 25°47' W 080°11'0 0.0
2018-Feb-15 09:29N 25°47' W 080°11'0 0.0
2018-Feb-15 08:59N 25°47' W 080°11'0 0.0
2018-Feb-15 08:29N 25°47' W 080°11'0 0.0
2018-Feb-15 07:59N 25°47' W 080°11'0 0.0
2018-Feb-15 07:17N 25°47' W 080°11'0 0.0
2018-Feb-15 06:56N 25°47' W 080°11'0 0.0
2018-Feb-15 06:23N 25°47' W 080°11'0 0.0
2018-Feb-15 05:59N 25°47' W 080°11'0 0.0
2018-Feb-15 05:23N 25°47' W 080°11'0 0.0
2018-Feb-15 04:59N 25°47' W 080°11'0 0.0
2018-Feb-15 04:26N 25°47' W 080°11'0 0.0
2018-Feb-15 03:53N 25°47' W 080°11'0 0.0
2018-Feb-15 03:29N 25°47' W 080°11'  
Track history (hours):
 
Tides and Currents Weather Stations Pressure Air Temp Water Temp Dewpoint Dewpoint Depression Visibility Wind Speed Wind Dir Waves Ship Positions

Island Queen

Owner: Island Queen Sightseeing Tours Inc., Miami, FL. More information available from US FCC via Universal Licensing System and Coast Guard Vessel Documentation Center.

Last reported at 2018-Feb-25 03:27 UTC. Time now 2018-Feb-25 03:54 UTC.
Position N 25°47' W 080°11'.

Type: Passenger vessel. MMSI: 367387350.

Date/timePositionNaut miles runAvg speedWind from/ knotsBaromVisibWave heightAir tempDewpointWater temp
2018-Feb-25 03:27N 25°47' W 080°11'0 0.0
2018-Feb-25 03:00N 25°47' W 080°11'0 0.0
2018-Feb-25 02:30N 25°47' W 080°11'0 0.0
2018-Feb-25 02:00N 25°47' W 080°11'0 0.0
2018-Feb-25 01:24N 25°47' W 080°11'0 0.0
2018-Feb-25 01:00N 25°47' W 080°11'0 0.0
2018-Feb-25 00:29N 25°47' W 080°11'2 3.7
2018-Feb-25 00:00N 25°46' W 080°09'1 1.8
2018-Feb-24 23:29N 25°47' W 080°10'1 2.9
2018-Feb-24 22:59N 25°47' W 080°11'0 0.0
2018-Feb-24 22:29N 25°47' W 080°11'1 2.9
2018-Feb-24 22:00N 25°46' W 080°10'1 1.7
2018-Feb-24 21:30N 25°47' W 080°09'2 3.4
2018-Feb-24 20:59N 25°47' W 080°11'0 0.0
2018-Feb-24 20:29N 25°47' W 080°11'2 5.1
2018-Feb-24 20:00N 25°46' W 080°09'1 2.1
2018-Feb-24 19:30N 25°47' W 080°09'2 3.1
2018-Feb-24 18:59N 25°47' W 080°11'0 0.0
2018-Feb-24 18:29N 25°47' W 080°11'2 5.2
2018-Feb-24 18:00N 25°46' W 080°08'1 2.5
2018-Feb-24 17:30N 25°47' W 080°10'1 2.7
2018-Feb-24 16:58N 25°47' W 080°11'2 5.2
2018-Feb-24 16:30N 25°44' W 080°11'4 8.5
2018-Feb-24 16:00N 25°40' W 080°10'2 4.5
2018-Feb-24 15:30N 25°40' W 080°12'5 8.8
2018-Feb-24 14:59N 25°44' W 080°11'3 4.7
2018-Feb-24 14:26N 25°47' W 080°11'0 0.0
2018-Feb-24 13:59N 25°47' W 080°11'0 0.0
2018-Feb-24 13:29N 25°47' W 080°11'0 0.0
2018-Feb-24 12:59N 25°47' W 080°11'0 0.0
2018-Feb-24 12:26N 25°47' W 080°11'0 0.0
2018-Feb-24 11:59N 25°47' W 080°11'0 0.0
2018-Feb-24 11:29N 25°47' W 080°11'0 0.0
2018-Feb-24 10:59N 25°47' W 080°11'0 0.0
2018-Feb-24 10:29N 25°47' W 080°11'0 0.0
2018-Feb-24 09:53N 25°47' W 080°11'0 0.0
2018-Feb-24 09:28N 25°47' W 080°11'0 0.0
2018-Feb-24 08:58N 25°47' W 080°11'0 0.0
2018-Feb-24 08:28N 25°47' W 080°11'0 0.0
2018-Feb-24 07:58N 25°47' W 080°11'0 0.0
2018-Feb-24 07:25N 25°47' W 080°11'0 0.0
2018-Feb-24 06:58N 25°47' W 080°11'0 0.0
2018-Feb-24 06:25N 25°47' W 080°11'0 0.0
2018-Feb-24 05:55N 25°47' W 080°11'0 0.0
2018-Feb-24 05:27N 25°47' W 080°11'0 0.0
2018-Feb-24 04:58N 25°47' W 080°11'0 0.0
2018-Feb-24 04:28N 25°47' W 080°11'0 0.0
2018-Feb-24 03:58N 25°47' W 080°11'0 0.0
2018-Feb-24 03:28N 25°47' W 080°11'0 0.0
2018-Feb-24 02:58N 25°47' W 080°11'0 0.0
2018-Feb-24 02:28N 25°47' W 080°11'0 0.0
2018-Feb-24 01:58N 25°47' W 080°11'0 0.0
2018-Feb-24 01:22N 25°47' W 080°11'0 0.0
2018-Feb-24 00:58N 25°47' W 080°11'0 0.0
2018-Feb-24 00:28N 25°47' W 080°11'0 0.0
2018-Feb-23 23:55N 25°47' W 080°11'0 0.4
2018-Feb-23 23:27N 25°47' W 080°11'1 2.9
2018-Feb-23 22:59N 25°47' W 080°09'1 2.3
2018-Feb-23 22:30N 25°46' W 080°09'2 4.4
2018-Feb-23 21:58N 25°47' W 080°11'0 0.0
2018-Feb-23 21:28N 25°47' W 080°11'2 4.1
2018-Feb-23 21:00N 25°46' W 080°09'1 1.9
2018-Feb-23 20:30N 25°47' W 080°10'1 1.9
2018-Feb-23 19:43N 25°47' W 080°11'0 0.0
2018-Feb-23 19:30N 25°47' W 080°11'2 3.3
2018-Feb-23 19:00N 25°47' W 080°09'1 1.6
2018-Feb-23 18:30N 25°46' W 080°09'2 3.8
2018-Feb-23 18:00N 25°47' W 080°11'0 0.0
2018-Feb-23 17:30N 25°47' W 080°11'2 3.5
2018-Feb-23 17:00N 25°46' W 080°09'1 1.9
2018-Feb-23 16:30N 25°47' W 080°10'1 2.7
2018-Feb-23 15:58N 25°47' W 080°11'0 0.1
2018-Feb-23 15:30N 25°47' W 080°11'0 0.1
2018-Feb-23 14:59N 25°47' W 080°11'0 0.0
2018-Feb-23 14:29N 25°47' W 080°11'0 0.0
2018-Feb-23 13:59N 25°47' W 080°11'0 0.0
2018-Feb-23 13:30N 25°47' W 080°11'0 0.0
2018-Feb-23 13:00N 25°47' W 080°11'0 0.0
2018-Feb-23 12:25N 25°47' W 080°11'0 0.0
2018-Feb-23 11:43N 25°47' W 080°11'0 0.0
2018-Feb-23 11:25N 25°47' W 080°11'0 0.0
2018-Feb-23 10:55N 25°47' W 080°11'0 0.0
2018-Feb-23 10:28N 25°47' W 080°11'0 0.0
2018-Feb-23 09:58N 25°47' W 080°11'0 0.0
2018-Feb-23 09:28N 25°47' W 080°11'0 0.0
2018-Feb-23 08:58N 25°47' W 080°11'0 0.0
2018-Feb-23 08:13N 25°47' W 080°11'0 0.0
2018-Feb-23 07:58N 25°47' W 080°11'0 0.0
2018-Feb-23 07:28N 25°47' W 080°11'0 0.0
2018-Feb-23 06:58N 25°47' W 080°11'0 0.0
2018-Feb-23 06:25N 25°47' W 080°11'0 0.0
2018-Feb-23 05:58N 25°47' W 080°11'0 0.0
2018-Feb-23 05:28N 25°47' W 080°11'0 0.0
2018-Feb-23 04:46N 25°47' W 080°11'0 0.0
2018-Feb-23 04:22N 25°47' W 080°11'0 0.0
2018-Feb-23 03:58N 25°47' W 080°11'0 0.0
2018-Feb-23 03:28N 25°47' W 080°11'0 0.0
2018-Feb-23 02:58N 25°47' W 080°11'0 0.0
2018-Feb-23 02:28N 25°47' W 080°11'0 0.0
2018-Feb-23 01:55N 25°47' W 080°11'0 0.0
2018-Feb-23 01:25N 25°47' W 080°11'0 0.0
2018-Feb-23 00:58N 25°47' W 080°11'0 0.0
2018-Feb-23 00:30N 25°47' W 080°11'2 3.7
2018-Feb-23 00:00N 25°46' W 080°09'1 1.3
2018-Feb-22 23:30N 25°47' W 080°09'2 3.2
2018-Feb-22 22:58N 25°47' W 080°11'0 0.0
2018-Feb-22 22:30N 25°47' W 080°11'2 4.4
2018-Feb-22 21:57N 25°46' W 080°09'1 2.5
2018-Feb-22 21:30N 25°47' W 080°10'1 2.7
2018-Feb-22 20:58N 25°47' W 080°11'0 0.0
2018-Feb-22 20:28N 25°47' W 080°11'2 4.0
2018-Feb-22 20:00N 25°46' W 080°09'1 1.9
2018-Feb-22 19:29N 25°47' W 080°10'1 3.0
2018-Feb-22 19:00N 25°47' W 080°11'0 0.0
2018-Feb-22 18:27N 25°47' W 080°11'2 4.8
2018-Feb-22 18:00N 25°46' W 080°09'1 2.0
2018-Feb-22 17:30N 25°47' W 080°09'2 2.2
2018-Feb-22 16:49N 25°47' W 080°11'0 0.5
2018-Feb-22 16:30N 25°47' W 080°11'2 3.7
2018-Feb-22 16:00N 25°47' W 080°09'1 2.2
2018-Feb-22 15:30N 25°47' W 080°10'1 2.4
2018-Feb-22 14:58N 25°47' W 080°11'0 0.0
2018-Feb-22 14:22N 25°47' W 080°11'0 0.0
2018-Feb-22 13:58N 25°47' W 080°11'0 0.0
2018-Feb-22 13:28N 25°47' W 080°11'0 0.0
2018-Feb-22 12:58N 25°47' W 080°11'0 0.0
2018-Feb-22 12:28N 25°47' W 080°11'0 0.0
2018-Feb-22 11:52N 25°47' W 080°11'0 0.0
2018-Feb-22 11:28N 25°47' W 080°11'0 0.0
2018-Feb-22 10:58N 25°47' W 080°11'0 0.0
2018-Feb-22 10:28N 25°47' W 080°11'0 0.0
2018-Feb-22 09:58N 25°47' W 080°11'0 0.0
2018-Feb-22 09:28N 25°47' W 080°11'0 0.0
2018-Feb-22 08:58N 25°47' W 080°11'0 0.0
2018-Feb-22 08:28N 25°47' W 080°11'0 0.0
2018-Feb-22 07:58N 25°47' W 080°11'0 0.0
2018-Feb-22 07:22N 25°47' W 080°11'0 0.0
2018-Feb-22 06:58N 25°47' W 080°11'0 0.0
2018-Feb-22 06:28N 25°47' W 080°11'0 0.0
2018-Feb-22 05:58N 25°47' W 080°11'0 0.0
2018-Feb-22 05:28N 25°47' W 080°11'0 0.0
2018-Feb-22 04:58N 25°47' W 080°11'0 0.0
2018-Feb-22 04:28N 25°47' W 080°11'0 0.0
2018-Feb-22 03:52N 25°47' W 080°11'0 0.0
2018-Feb-22 03:28N 25°47' W 080°11'0 0.0
2018-Feb-22 02:58N 25°47' W 080°11'0 0.0
2018-Feb-22 02:28N 25°47' W 080°11'0 0.0
2018-Feb-22 01:58N 25°47' W 080°11'0 0.0
2018-Feb-22 01:28N 25°47' W 080°11'0 0.0
2018-Feb-22 00:58N 25°47' W 080°11'0 0.0
2018-Feb-22 00:25N 25°47' W 080°11'0 0.0
2018-Feb-21 23:58N 25°47' W 080°11'0 0.0
2018-Feb-21 23:28N 25°47' W 080°11'0 0.0
2018-Feb-21 22:58N 25°47' W 080°11'1 2.9
2018-Feb-21 22:30N 25°46' W 080°10'1 1.8
2018-Feb-21 22:00N 25°47' W 080°09'2 2.6
2018-Feb-21 21:21N 25°47' W 080°11'0 0.0
2018-Feb-21 20:59N 25°47' W 080°11'2 4.9
2018-Feb-21 20:30N 25°46' W 080°09'1 2.7
2018-Feb-21 20:00N 25°47' W 080°09'2 3.0
2018-Feb-21 19:25N 25°47' W 080°11'0 0.0
2018-Feb-21 19:00N 25°47' W 080°11'2 4.5
2018-Feb-21 18:29N 25°46' W 080°09'1 2.5
2018-Feb-21 18:00N 25°47' W 080°09'2 3.0
2018-Feb-21 17:28N 25°47' W 080°11'0 0.0
2018-Feb-21 17:00N 25°47' W 080°11'2 4.5
2018-Feb-21 16:30N 25°46' W 080°09'1 2.1
2018-Feb-21 16:00N 25°47' W 080°09'2 2.9
2018-Feb-21 15:28N 25°47' W 080°11'0 0.0
2018-Feb-21 14:55N 25°47' W 080°11'0 0.0
2018-Feb-21 14:28N 25°47' W 080°11'0 0.0
2018-Feb-21 13:58N 25°47' W 080°11'0 0.0
2018-Feb-21 13:28N 25°47' W 080°11'0 0.0
2018-Feb-21 12:58N 25°47' W 080°11'0 0.0
2018-Feb-21 12:25N 25°47' W 080°11'0 0.0
2018-Feb-21 11:58N 25°47' W 080°11'0 0.0
2018-Feb-21 11:28N 25°47' W 080°11'0 0.0
2018-Feb-21 10:55N 25°47' W 080°11'0 0.0
2018-Feb-21 10:28N 25°47' W 080°11'0 0.0
2018-Feb-21 09:58N 25°47' W 080°11'0 0.0
2018-Feb-21 09:28N 25°47' W 080°11'0 0.0
2018-Feb-21 08:55N 25°47' W 080°11'0 0.0
2018-Feb-21 08:28N 25°47' W 080°11'0 0.0
2018-Feb-21 07:55N 25°47' W 080°11'0 0.0
2018-Feb-21 07:28N 25°47' W 080°11'0 0.0
2018-Feb-21 06:58N 25°47' W 080°11'0 0.0
2018-Feb-21 06:28N 25°47' W 080°11'0 0.0
2018-Feb-21 05:55N 25°47' W 080°11'0 0.0
2018-Feb-21 05:25N 25°47' W 080°11'0 0.0
2018-Feb-21 04:58N 25°47' W 080°11'0 0.0
2018-Feb-21 04:25N 25°47' W 080°11'0 0.0
2018-Feb-21 03:58N 25°47' W 080°11'0 0.0
2018-Feb-21 03:28N 25°47' W 080°11'0 0.0
2018-Feb-21 02:55N 25°47' W 080°11'0 0.0
2018-Feb-21 02:28N 25°47' W 080°11'0 0.0
2018-Feb-21 01:55N 25°47' W 080°11'0 0.0
2018-Feb-21 01:25N 25°47' W 080°11'0 0.0
2018-Feb-21 00:58N 25°47' W 080°11'0 0.0
2018-Feb-21 00:25N 25°47' W 080°11'0 0.0
2018-Feb-20 23:58N 25°47' W 080°11'0 0.0
2018-Feb-20 23:28N 25°47' W 080°11'0 0.0
2018-Feb-20 23:00N 25°47' W 080°11'2 4.7
2018-Feb-20 22:30N 25°46' W 080°09'1 1.9
2018-Feb-20 22:00N 25°47' W 080°09'2 3.3
2018-Feb-20 21:30N 25°47' W 080°11'0 0.0
2018-Feb-20 21:00N 25°47' W 080°11'2 4.9
2018-Feb-20 20:30N 25°46' W 080°09'1 2.1
2018-Feb-20 20:00N 25°47' W 080°09'2 3.4
2018-Feb-20 19:30N 25°47' W 080°11'0 0.0
2018-Feb-20 19:00N 25°47' W 080°11'1 2.8
2018-Feb-20 18:30N 25°47' W 080°10'1 2.3
2018-Feb-20 18:00N 25°46' W 080°09'2 3.2
2018-Feb-20 17:19N 25°47' W 080°11'0 0.3
2018-Feb-20 16:56N 25°47' W 080°11'2 5.3
2018-Feb-20 16:30N 25°46' W 080°09'1 2.6
2018-Feb-20 16:00N 25°47' W 080°10'1 2.6
2018-Feb-20 15:26N 25°47' W 080°11'0 0.0
2018-Feb-20 14:56N 25°47' W 080°11'0 0.0
2018-Feb-20 14:29N 25°47' W 080°11'0 0.0
2018-Feb-20 13:53N 25°47' W 080°11'0 0.0
2018-Feb-20 13:20N 25°47' W 080°11'0 0.0
2018-Feb-20 13:00N 25°47' W 080°11'0 0.3
2018-Feb-20 12:28N 25°47' W 080°11'0 0.2
2018-Feb-20 11:50N 25°47' W 080°11'0 0.0
2018-Feb-20 11:29N 25°47' W 080°11'0 0.0
2018-Feb-20 10:59N 25°47' W 080°11'0 0.0
2018-Feb-20 10:17N 25°47' W 080°11'0 0.0
2018-Feb-20 09:59N 25°47' W 080°11'0 0.0
2018-Feb-20 09:26N 25°47' W 080°11'0 0.0
2018-Feb-20 08:59N 25°47' W 080°11'0 0.0
2018-Feb-20 08:29N 25°47' W 080°11'0 0.0
2018-Feb-20 07:59N 25°47' W 080°11'0 0.0
2018-Feb-20 07:29N 25°47' W 080°11'0 0.0
2018-Feb-20 06:56N 25°47' W 080°11'0 0.0
2018-Feb-20 06:29N 25°47' W 080°11'0 0.0
2018-Feb-20 05:56N 25°47' W 080°11'0 0.0
2018-Feb-20 05:29N 25°47' W 080°11'0 0.0
2018-Feb-20 04:59N 25°47' W 080°11'0 0.0
2018-Feb-20 04:26N 25°47' W 080°11'0 0.0
2018-Feb-20 03:59N 25°47' W 080°11'0 0.0
2018-Feb-20 03:29N 25°47' W 080°11'0 0.0
2018-Feb-20 02:59N 25°47' W 080°11'0 0.0
2018-Feb-20 02:29N 25°47' W 080°11'0 0.0
2018-Feb-20 01:59N 25°47' W 080°11'0 0.0
2018-Feb-20 01:25N 25°47' W 080°11'0 0.0
2018-Feb-20 00:58N 25°47' W 080°11'0 0.0
2018-Feb-20 00:25N 25°47' W 080°11'0 0.7
2018-Feb-20 00:00N 25°47' W 080°11'2 4.6
2018-Feb-19 23:29N 25°45' W 080°10'1 2.1
2018-Feb-19 23:00N 25°45' W 080°11'2 3.1
2018-Feb-19 22:30N 25°47' W 080°11'2 4.5
2018-Feb-19 22:00N 25°45' W 080°10'1 1.1
2018-Feb-19 21:30N 25°45' W 080°11'2 4.0
2018-Feb-19 21:00N 25°47' W 080°11'2 4.8
2018-Feb-19 20:30N 25°45' W 080°10'0 0.3
2018-Feb-19 20:00N 25°45' W 080°10'2 4.4
2018-Feb-19 19:29N 25°47' W 080°11'0 0.7
2018-Feb-19 19:00N 25°47' W 080°11'2 4.3
2018-Feb-19 18:30N 25°45' W 080°10'2 4.4
2018-Feb-19 17:57N 25°47' W 080°11'0 0.8
2018-Feb-19 17:29N 25°47' W 080°11'2 4.5
2018-Feb-19 16:58N 25°45' W 080°10'2 5.0
2018-Feb-19 16:30N 25°47' W 080°11'0 0.5
2018-Feb-19 16:00N 25°47' W 080°11'2 3.7
2018-Feb-19 15:29N 25°45' W 080°11'0 0.3
2018-Feb-19 14:59N 25°45' W 080°11'2 3.5
2018-Feb-19 14:29N 25°47' W 080°11'0 0.5
2018-Feb-19 14:00N 25°47' W 080°11'0 0.4
2018-Feb-19 13:30N 25°47' W 080°11'0 0.4
2018-Feb-19 13:00N 25°47' W 080°11'0 0.0
2018-Feb-19 12:27N 25°47' W 080°11'0 0.0
2018-Feb-19 12:00N 25°47' W 080°11'0 0.0
2018-Feb-19 11:30N 25°47' W 080°11'0 0.0
2018-Feb-19 10:57N 25°47' W 080°11'0 0.0
2018-Feb-19 10:30N 25°47' W 080°11'0 0.0
2018-Feb-19 10:00N 25°47' W 080°11'0 0.0
2018-Feb-19 09:30N 25°47' W 080°11'0 0.0
2018-Feb-19 08:54N 25°47' W 080°11'0 0.0
2018-Feb-19 08:21N 25°47' W 080°11'0 0.0
2018-Feb-19 08:00N 25°47' W 080°11'0 0.0
2018-Feb-19 07:30N 25°47' W 080°11'0 0.0
2018-Feb-19 07:00N 25°47' W 080°11'0 0.0
2018-Feb-19 06:30N 25°47' W 080°11'0 0.0
2018-Feb-19 06:00N 25°47' W 080°11'0 0.0
2018-Feb-19 05:30N 25°47' W 080°11'0 0.0
2018-Feb-19 05:00N 25°47' W 080°11'0 0.0
2018-Feb-19 04:30N 25°47' W 080°11'0 0.0
2018-Feb-19 03:54N 25°47' W 080°11'0 0.0
2018-Feb-19 03:30N 25°47' W 080°11'0 0.0
2018-Feb-19 03:00N 25°47' W 080°11'0 0.0
2018-Feb-19 02:27N 25°47' W 080°11'0 0.0
2018-Feb-19 02:00N 25°47' W 080°11'0 0.0
2018-Feb-19 01:30N 25°47' W 080°11'0 0.0
2018-Feb-19 00:58N 25°47' W 080°11'0 0.0
2018-Feb-19 00:27N 25°47' W 080°11'0 0.5
2018-Feb-19 00:00N 25°47' W 080°11'0 0.3
2018-Feb-18 23:30N 25°47' W 080°11'2 4.1
2018-Feb-18 22:56N 25°45' W 080°10'1 1.7
2018-Feb-18 22:30N 25°45' W 080°11'2 4.0
2018-Feb-18 22:00N 25°47' W 080°11'2 4.6
2018-Feb-18 21:29N 25°45' W 080°10'2 3.3
2018-Feb-18 21:00N 25°46' W 080°11'0 0.1
2018-Feb-18 20:30N 25°46' W 080°11'2 2.9
2018-Feb-18 19:58N 25°45' W 080°10'2 4.3
2018-Feb-18 19:30N 25°47' W 080°11'0 0.7
2018-Feb-18 19:00N 25°47' W 080°11'0 0.1
2018-Feb-18 18:28N 25°47' W 080°11'2 4.4
2018-Feb-18 18:01N 25°45' W 080°11'1 1.6
2018-Feb-18 17:30N 25°46' W 080°11'1 1.3
2018-Feb-18 17:00N 25°46' W 080°11'1 2.8
2018-Feb-18 16:30N 25°45' W 080°11'2 3.9
2018-Feb-18 15:57N 25°47' W 080°11'2 4.9
2018-Feb-18 15:30N 25°45' W 080°10'2 3.3
2018-Feb-18 15:00N 25°46' W 080°11'1 1.2
2018-Feb-18 14:28N 25°47' W 080°11'0 0.1
2018-Feb-18 13:58N 25°47' W 080°11'0 0.6
2018-Feb-18 13:24N 25°47' W 080°11'0 0.0
2018-Feb-18 12:59N 25°47' W 080°11'0 0.0
2018-Feb-18 12:29N 25°47' W 080°11'0 0.0
2018-Feb-18 11:53N 25°47' W 080°11'0 0.0
2018-Feb-18 11:29N 25°47' W 080°11'0 0.0
2018-Feb-18 10:56N 25°47' W 080°11'0 0.0
2018-Feb-18 10:29N 25°47' W 080°11'0 0.0
2018-Feb-18 09:59N 25°47' W 080°11'0 0.0
2018-Feb-18 09:30N 25°47' W 080°11'0 0.0
2018-Feb-18 08:59N 25°47' W 080°11'0 0.0
2018-Feb-18 08:29N 25°47' W 080°11'0 0.0
2018-Feb-18 07:59N 25°47' W 080°11'0 0.0
2018-Feb-18 07:29N 25°47' W 080°11'0 0.0
2018-Feb-18 07:00N 25°47' W 080°11'0 0.0
2018-Feb-18 06:29N 25°47' W 080°11'0 0.0
2018-Feb-18 05:59N 25°47' W 080°11'0 0.0
2018-Feb-18 05:29N 25°47' W 080°11'0 0.0
2018-Feb-18 04:53N 25°47' W 080°11'0 0.0
2018-Feb-18 04:29N 25°47' W 080°11'0 0.0
2018-Feb-18 03:50N 25°47' W 080°11'0 0.0
2018-Feb-18 03:23N 25°47' W 080°11'0 0.0
2018-Feb-18 02:53N 25°47' W 080°11'0 0.0
2018-Feb-18 02:23N 25°47' W 080°11'0 0.0
2018-Feb-18 01:59N 25°47' W 080°11'0 0.0
2018-Feb-18 01:30N 25°47' W 080°11'0 0.5
2018-Feb-18 01:00N 25°47' W 080°11'2 3.7
2018-Feb-18 00:30N 25°45' W 080°11'1 1.0
2018-Feb-18 00:00N 25°46' W 080°11'1 2.7
2018-Feb-17 23:30N 25°47' W 080°11'2 4.8
2018-Feb-17 23:00N 25°45' W 080°10'1 2.8
2018-Feb-17 22:30N 25°46' W 080°11'0 0.3
2018-Feb-17 22:00N 25°46' W 080°11'2 3.0
2018-Feb-17 21:29N 25°45' W 080°10'2 4.5
2018-Feb-17 21:00N 25°47' W 080°11'1 2.2
2018-Feb-17 20:30N 25°46' W 080°11'1 2.2
2018-Feb-17 20:00N 25°45' W 080°10'2 4.2
2018-Feb-17 19:30N 25°47' W 080°11'0 0.4
2018-Feb-17 18:59N 25°47' W 080°11'0 0.1
2018-Feb-17 18:30N 25°47' W 080°11'2 4.7
2018-Feb-17 17:59N 25°45' W 080°10'1 2.6
2018-Feb-17 17:30N 25°46' W 080°11'1 2.4
2018-Feb-17 16:59N 25°47' W 080°11'2 4.2
2018-Feb-17 16:29N 25°45' W 080°11'0 0.5
2018-Feb-17 15:59N 25°45' W 080°10'2 4.6
2018-Feb-17 15:30N 25°47' W 080°11'2 4.3
2018-Feb-17 15:00N 25°45' W 080°11'1 1.9
2018-Feb-17 14:30N 25°46' W 080°11'1 2.3
2018-Feb-17 13:59N 25°47' W 080°11'0 0.6
2018-Feb-17 13:30N 25°47' W 080°11'0 0.0
2018-Feb-17 12:57N 25°47' W 080°11'0 0.0
2018-Feb-17 12:30N 25°47' W 080°11'0 0.0
2018-Feb-17 12:00N 25°47' W 080°11'0 0.0
2018-Feb-17 11:24N 25°47' W 080°11'0 0.0
2018-Feb-17 11:00N 25°47' W 080°11'0 0.0
2018-Feb-17 10:30N 25°47' W 080°11'0 0.0
2018-Feb-17 10:01N 25°47' W 080°11'0 0.0
2018-Feb-17 09:30N 25°47' W 080°11'0 0.0
2018-Feb-17 09:00N 25°47' W 080°11'0 0.0
2018-Feb-17 08:24N 25°47' W 080°11'0 0.0
2018-Feb-17 08:00N 25°47' W 080°11'0 0.0
2018-Feb-17 07:30N 25°47' W 080°11'0 0.0
2018-Feb-17 07:00N 25°47' W 080°11'0 0.0
2018-Feb-17 06:24N 25°47' W 080°11'0 0.0
2018-Feb-17 06:00N 25°47' W 080°11'0 0.0
2018-Feb-17 05:30N 25°47' W 080°11'0 0.0
2018-Feb-17 05:00N 25°47' W 080°11'0 0.0
2018-Feb-17 04:30N 25°47' W 080°11'0 0.0
2018-Feb-17 03:57N 25°47' W 080°11'0 0.0
2018-Feb-17 03:30N 25°47' W 080°11'0 0.0
2018-Feb-17 03:00N 25°47' W 080°11'0 0.0
2018-Feb-17 02:18N 25°47' W 080°11'0 0.0
2018-Feb-17 02:00N 25°47' W 080°11'0 0.0
2018-Feb-17 01:30N 25°47' W 080°11'0 0.0
2018-Feb-17 01:00N 25°47' W 080°11'0 0.5
2018-Feb-17 00:27N 25°47' W 080°11'2 4.4
2018-Feb-16 23:58N 25°45' W 080°11'1 1.5
2018-Feb-16 23:29N 25°46' W 080°11'1 2.9
2018-Feb-16 23:00N 25°47' W 080°11'2 4.4
2018-Feb-16 22:30N 25°45' W 080°10'1 2.7
2018-Feb-16 22:00N 25°46' W 080°11'1 1.4
2018-Feb-16 21:30N 25°47' W 080°11'2 3.7
2018-Feb-16 20:59N 25°45' W 080°10'2 3.5
2018-Feb-16 20:30N 25°46' W 080°11'1 1.2
2018-Feb-16 20:00N 25°46' W 080°11'1 2.3
2018-Feb-16 19:28N 25°45' W 080°10'2 4.5
2018-Feb-16 19:00N 25°47' W 080°11'0 0.5
2018-Feb-16 18:26N 25°47' W 080°11'2 4.0
2018-Feb-16 18:00N 25°45' W 080°11'0 0.1
2018-Feb-16 17:30N 25°45' W 080°11'2 3.5
2018-Feb-16 17:00N 25°47' W 080°11'2 5.0
2018-Feb-16 16:30N 25°45' W 080°10'2 4.1
2018-Feb-16 16:00N 25°47' W 080°11'1 2.6
2018-Feb-16 15:30N 25°45' W 080°11'0 0.7
2018-Feb-16 14:58N 25°45' W 080°11'2 4.2
2018-Feb-16 14:29N 25°47' W 080°11'0 0.6
2018-Feb-16 13:59N 25°47' W 080°11'0 0.7
2018-Feb-16 13:28N 25°47' W 080°11'0 0.0
2018-Feb-16 12:58N 25°47' W 080°11'0 0.0
2018-Feb-16 12:25N 25°47' W 080°11'0 0.0
2018-Feb-16 11:52N 25°47' W 080°11'0 0.0
2018-Feb-16 11:25N 25°47' W 080°11'0 0.0
2018-Feb-16 10:55N 25°47' W 080°11'0 0.0
2018-Feb-16 10:28N 25°47' W 080°11'0 0.0
2018-Feb-16 09:58N 25°47' W 080°11'0 0.0
2018-Feb-16 09:25N 25°47' W 080°11'0 0.0
2018-Feb-16 08:58N 25°47' W 080°11'0 0.0
2018-Feb-16 08:28N 25°47' W 080°11'0 0.0
2018-Feb-16 07:58N 25°47' W 080°11'0 0.0
2018-Feb-16 07:28N 25°47' W 080°11'0 0.0
2018-Feb-16 06:58N 25°47' W 080°11'0 0.0
2018-Feb-16 06:28N 25°47' W 080°11'0 0.0
2018-Feb-16 05:52N 25°47' W 080°11'0 0.0
2018-Feb-16 05:28N 25°47' W 080°11'0 0.0
2018-Feb-16 04:52N 25°47' W 080°11'0 0.0
2018-Feb-16 04:28N 25°47' W 080°11'0 0.0
2018-Feb-16 03:58N 25°47' W 080°11'0 0.0
2018-Feb-16 03:28N 25°47' W 080°11'0 0.0
2018-Feb-16 02:58N 25°47' W 080°11'0 0.0
2018-Feb-16 02:25N 25°47' W 080°11'0 0.0
2018-Feb-16 01:58N 25°47' W 080°11'0 0.0
2018-Feb-16 01:28N 25°47' W 080°11'0 0.0
2018-Feb-16 00:58N 25°47' W 080°11'0 0.0
2018-Feb-16 00:28N 25°47' W 080°11'0 0.5
2018-Feb-15 23:58N 25°47' W 080°11'2 4.3
2018-Feb-15 23:30N 25°45' W 080°11'1 1.5
2018-Feb-15 22:59N 25°45' W 080°10'2 4.3
2018-Feb-15 22:27N 25°47' W 080°11'1 3.2
2018-Feb-15 22:00N 25°46' W 080°11'1 2.2
2018-Feb-15 21:30N 25°45' W 080°10'1 2.8
2018-Feb-15 21:00N 25°46' W 080°11'1 1.3
2018-Feb-15 20:30N 25°47' W 080°11'2 3.8
2018-Feb-15 19:59N 25°45' W 080°10'1 2.4
2018-Feb-15 19:30N 25°46' W 080°11'1 2.3
2018-Feb-15 19:00N 25°47' W 080°11'2 3.8
2018-Feb-15 18:30N 25°45' W 080°11'0 0.8
2018-Feb-15 18:00N 25°45' W 080°10'2 4.6
2018-Feb-15 17:30N 25°47' W 080°11'1 2.2
2018-Feb-15 17:00N 25°46' W 080°11'1 2.3
2018-Feb-15 16:30N 25°45' W 080°10'2 4.5
2018-Feb-15 16:00N 25°47' W 080°11'2 3.9
2018-Feb-15 15:30N 25°45' W 080°11'0 0.3
2018-Feb-15 15:00N 25°45' W 080°11'2 4.0
2018-Feb-15 14:29N 25°47' W 080°11'0 0.4
2018-Feb-15 13:58N 25°47' W 080°11'0 0.6
2018-Feb-15 13:29N 25°47' W 080°11'0 0.0
2018-Feb-15 12:59N 25°47' W 080°11'0 0.0
2018-Feb-15 12:26N 25°47' W 080°11'0 0.0
2018-Feb-15 11:59N 25°47' W 080°11'0 0.0
2018-Feb-15 11:29N 25°47' W 080°11'0 0.0
2018-Feb-15 10:59N 25°47' W 080°11'0 0.0
2018-Feb-15 10:29N 25°47' W 080°11'0 0.0
2018-Feb-15 09:59N 25°47' W 080°11'0 0.0
2018-Feb-15 09:29N 25°47' W 080°11'0 0.0
2018-Feb-15 08:59N 25°47' W 080°11'0 0.0
2018-Feb-15 08:29N 25°47' W 080°11'0 0.0
2018-Feb-15 07:59N 25°47' W 080°11'0 0.0
2018-Feb-15 07:17N 25°47' W 080°11'0 0.0
2018-Feb-15 06:56N 25°47' W 080°11'0 0.0
2018-Feb-15 06:23N 25°47' W 080°11'0 0.0
2018-Feb-15 05:59N 25°47' W 080°11'0 0.0
2018-Feb-15 05:23N 25°47' W 080°11'0 0.0
2018-Feb-15 04:59N 25°47' W 080°11'0 0.0
2018-Feb-15 04:26N 25°47' W 080°11'0 0.0
2018-Feb-15 03:53N 25°47' W 080°11'0 0.0
2018-Feb-15 03:29N 25°47' W 080°11'  

Dump ship's entire track history